PKPAS EDDV-EHAM
Flight info
| Callsign | PKPAS |
|---|---|
| Flight time | 0h 56m |
| Altitude | 24000 |
| Route | VAXEV2Y/09L VAXEV DCT AMSAN T281 NORKU |
| Aircraft | PC12/L-SDFGRWY/S |
Departure
| Time | 2026-05-07 15:26 |
|---|---|
| Airport | Hannover Airport (EDDV) |
Arrival
| Time | 2026-05-07 16:23 |
|---|---|
| Airport | Amsterdam Airport Schiphol (EHAM) |
| Time | Latitude | Longitude | Altitude | Speed | Heading |
|---|---|---|---|---|---|
| 2026-05-07 15:14 | 52.46324 | 9.69342 | 175 ft | 0 kts | 341° |
| 2026-05-07 15:18 | 52.46325 | 9.69341 | 175 ft | 2 kts | 331° |
| 2026-05-07 15:18 | 52.46323 | 9.69322 | 175 ft | 5 kts | 239° |
| 2026-05-07 15:18 | 52.46345 | 9.69276 | 175 ft | 7 kts | 337° |
| 2026-05-07 15:19 | 52.46354 | 9.69200 | 175 ft | 9 kts | 248° |
| 2026-05-07 15:19 | 52.46330 | 9.69096 | 175 ft | 11 kts | 248° |
| 2026-05-07 15:19 | 52.46299 | 9.68970 | 175 ft | 13 kts | 248° |
| 2026-05-07 15:19 | 52.46263 | 9.68821 | 175 ft | 15 kts | 248° |
| 2026-05-07 15:20 | 52.46248 | 9.68667 | 175 ft | 14 kts | 298° |
| 2026-05-07 15:20 | 52.46322 | 9.68562 | 175 ft | 14 kts | 323° |
| 2026-05-07 15:20 | 52.46400 | 9.68466 | 175 ft | 14 kts | 323° |
| 2026-05-07 15:20 | 52.46476 | 9.68362 | 174 ft | 15 kts | 309° |
| 2026-05-07 15:21 | 52.46518 | 9.68206 | 174 ft | 16 kts | 278° |
| 2026-05-07 15:21 | 52.46525 | 9.68021 | 174 ft | 17 kts | 272° |
| 2026-05-07 15:21 | 52.46530 | 9.67829 | 175 ft | 17 kts | 272° |
| 2026-05-07 15:21 | 52.46536 | 9.67620 | 175 ft | 19 kts | 272° |
| 2026-05-07 15:22 | 52.46542 | 9.67390 | 175 ft | 21 kts | 272° |
| 2026-05-07 15:22 | 52.46549 | 9.67143 | 175 ft | 22 kts | 272° |
| 2026-05-07 15:22 | 52.46556 | 9.66891 | 174 ft | 20 kts | 272° |
| 2026-05-07 15:22 | 52.46566 | 9.66725 | 174 ft | 13 kts | 295° |
| 2026-05-07 15:23 | 52.46593 | 9.66679 | 174 ft | 0 kts | 332° |
| 2026-05-07 15:23 | 52.46595 | 9.66677 | 174 ft | 2 kts | 334° |
| 2026-05-07 15:23 | 52.46630 | 9.66668 | 174 ft | 9 kts | 7° |
| 2026-05-07 15:24 | 52.46686 | 9.66760 | 173 ft | 15 kts | 73° |
| 2026-05-07 15:24 | 52.46717 | 9.66942 | 172 ft | 18 kts | 74° |
| 2026-05-07 15:24 | 52.46768 | 9.67097 | 171 ft | 11 kts | 56° |
| 2026-05-07 15:24 | 52.46773 | 9.67166 | 171 ft | 0 kts | 91° |
| 2026-05-07 15:25 | 52.46772 | 9.67215 | 171 ft | 22 kts | 92° |
| 2026-05-07 15:25 | 52.46756 | 9.67774 | 172 ft | 74 kts | 92° |
| 2026-05-07 15:25 | 52.46730 | 9.68780 | 238 ft | 96 kts | 92° |
| 2026-05-07 15:25 | 52.46696 | 9.69922 | 466 ft | 105 kts | 93° |
| 2026-05-07 15:26 | 52.46664 | 9.71165 | 724 ft | 116 kts | 92° |
| 2026-05-07 15:26 | 52.46626 | 9.72594 | 999 ft | 136 kts | 93° |
| 2026-05-07 15:26 | 52.46602 | 9.74192 | 1415 ft | 144 kts | 83° |
| 2026-05-07 15:26 | 52.47111 | 9.75616 | 1821 ft | 153 kts | 38° |
| 2026-05-07 15:27 | 52.48140 | 9.76094 | 2225 ft | 161 kts | 4° |
| 2026-05-07 15:27 | 52.49293 | 9.76084 | 2625 ft | 169 kts | 2° |
| 2026-05-07 15:27 | 52.50486 | 9.76015 | 3014 ft | 175 kts | 354° |
| 2026-05-07 15:27 | 52.51620 | 9.75192 | 3408 ft | 185 kts | 326° |
| 2026-05-07 15:28 | 52.52435 | 9.73519 | 3791 ft | 193 kts | 299° |
| 2026-05-07 15:28 | 52.53003 | 9.71500 | 4188 ft | 196 kts | 297° |
| 2026-05-07 15:28 | 52.53578 | 9.69440 | 4579 ft | 200 kts | 298° |
| 2026-05-07 15:28 | 52.54167 | 9.67348 | 4975 ft | 203 kts | 298° |
| 2026-05-07 15:29 | 52.54762 | 9.65234 | 5355 ft | 205 kts | 297° |
| 2026-05-07 15:29 | 52.55178 | 9.63035 | 5734 ft | 208 kts | 272° |
| 2026-05-07 15:29 | 52.54809 | 9.60763 | 6132 ft | 207 kts | 245° |
| 2026-05-07 15:29 | 52.54176 | 9.58631 | 6525 ft | 208 kts | 243° |
| 2026-05-07 15:30 | 52.53536 | 9.56484 | 6897 ft | 210 kts | 244° |
| 2026-05-07 15:30 | 52.52905 | 9.54309 | 7243 ft | 211 kts | 244° |
| 2026-05-07 15:30 | 52.52271 | 9.52118 | 7617 ft | 212 kts | 244° |
| 2026-05-07 15:30 | 52.51634 | 9.49923 | 8001 ft | 213 kts | 244° |
| 2026-05-07 15:31 | 52.51005 | 9.47764 | 8378 ft | 212 kts | 244° |
| 2026-05-07 15:31 | 52.50370 | 9.45583 | 8767 ft | 212 kts | 244° |
| 2026-05-07 15:31 | 52.49733 | 9.43399 | 9166 ft | 212 kts | 245° |
| 2026-05-07 15:31 | 52.49095 | 9.41211 | 9566 ft | 212 kts | 245° |
| 2026-05-07 15:32 | 52.48458 | 9.39033 | 9968 ft | 212 kts | 245° |
| 2026-05-07 15:32 | 52.47820 | 9.36853 | 10333 ft | 212 kts | 245° |
| 2026-05-07 15:32 | 52.47184 | 9.34676 | 10697 ft | 211 kts | 245° |
| 2026-05-07 15:32 | 52.46547 | 9.32502 | 11068 ft | 211 kts | 245° |
| 2026-05-07 15:33 | 52.45911 | 9.30335 | 11442 ft | 210 kts | 245° |
| 2026-05-07 15:33 | 52.45285 | 9.28201 | 11816 ft | 210 kts | 245° |
| 2026-05-07 15:33 | 52.44652 | 9.26047 | 12207 ft | 209 kts | 245° |
| 2026-05-07 15:33 | 52.44021 | 9.23900 | 12591 ft | 209 kts | 245° |
| 2026-05-07 15:34 | 52.43390 | 9.21756 | 12983 ft | 209 kts | 245° |
| 2026-05-07 15:34 | 52.42758 | 9.19609 | 13382 ft | 208 kts | 245° |
| 2026-05-07 15:34 | 52.42129 | 9.17474 | 13784 ft | 208 kts | 245° |
| 2026-05-07 15:34 | 52.41499 | 9.15340 | 14155 ft | 208 kts | 245° |
| 2026-05-07 15:35 | 52.40867 | 9.13200 | 14520 ft | 209 kts | 245° |
| 2026-05-07 15:35 | 52.40233 | 9.11052 | 14883 ft | 209 kts | 245° |
| 2026-05-07 15:35 | 52.39599 | 9.08902 | 15254 ft | 209 kts | 246° |
| 2026-05-07 15:35 | 52.39072 | 9.06726 | 15625 ft | 208 kts | 250° |
| 2026-05-07 15:36 | 52.38542 | 9.04523 | 16007 ft | 208 kts | 249° |
| 2026-05-07 15:36 | 52.38011 | 9.02319 | 16388 ft | 208 kts | 249° |
| 2026-05-07 15:36 | 52.37483 | 9.00117 | 16779 ft | 208 kts | 249° |
| 2026-05-07 15:36 | 52.36954 | 8.97912 | 17170 ft | 208 kts | 249° |
| 2026-05-07 15:37 | 52.36426 | 8.95717 | 17571 ft | 207 kts | 249° |
| 2026-05-07 15:37 | 52.35900 | 8.93535 | 17982 ft | 207 kts | 249° |
| 2026-05-07 15:37 | 52.35370 | 8.91339 | 18382 ft | 206 kts | 249° |
| 2026-05-07 15:37 | 52.34846 | 8.89169 | 18737 ft | 206 kts | 249° |
| 2026-05-07 15:38 | 52.34319 | 8.86985 | 19099 ft | 206 kts | 249° |
| 2026-05-07 15:38 | 52.33791 | 8.84806 | 19465 ft | 205 kts | 249° |
| 2026-05-07 15:38 | 52.33267 | 8.82639 | 19830 ft | 204 kts | 249° |
| 2026-05-07 15:38 | 52.32743 | 8.80478 | 20207 ft | 204 kts | 249° |
| 2026-05-07 15:39 | 52.32228 | 8.78355 | 20579 ft | 203 kts | 249° |
| 2026-05-07 15:39 | 52.31707 | 8.76212 | 20961 ft | 203 kts | 249° |
| 2026-05-07 15:39 | 52.31186 | 8.74067 | 21350 ft | 202 kts | 249° |
| 2026-05-07 15:39 | 52.30665 | 8.71929 | 21745 ft | 202 kts | 248° |
| 2026-05-07 15:40 | 52.30147 | 8.69803 | 22143 ft | 200 kts | 248° |
| 2026-05-07 15:40 | 52.29634 | 8.67696 | 22543 ft | 199 kts | 248° |
| 2026-05-07 15:40 | 52.29122 | 8.65601 | 22951 ft | 198 kts | 248° |
| 2026-05-07 15:40 | 52.28618 | 8.63537 | 23399 ft | 195 kts | 248° |
| 2026-05-07 15:41 | 52.28113 | 8.61476 | 23698 ft | 199 kts | 248° |
| 2026-05-07 15:41 | 52.27599 | 8.59371 | 24004 ft | 200 kts | 248° |
| 2026-05-07 15:41 | 52.27068 | 8.57205 | 24082 ft | 213 kts | 248° |
| 2026-05-07 15:41 | 52.26501 | 8.54885 | 24085 ft | 227 kts | 248° |
| 2026-05-07 15:42 | 52.25903 | 8.52435 | 24086 ft | 237 kts | 248° |
| 2026-05-07 15:42 | 52.25493 | 8.50761 | 24086 ft | 242 kts | 248° |
| 2026-05-07 15:42 | 52.24643 | 8.47297 | 24090 ft | 249 kts | 248° |
| 2026-05-07 15:42 | 52.24212 | 8.45545 | 24091 ft | 252 kts | 248° |
| 2026-05-07 15:43 | 52.23554 | 8.42874 | 24092 ft | 255 kts | 248° |
| 2026-05-07 15:43 | 52.22886 | 8.40165 | 24087 ft | 258 kts | 248° |
| 2026-05-07 15:43 | 52.22213 | 8.37439 | 24087 ft | 260 kts | 248° |
| 2026-05-07 15:43 | 52.21538 | 8.34704 | 24088 ft | 260 kts | 248° |
| 2026-05-07 15:44 | 52.20861 | 8.31965 | 24088 ft | 261 kts | 248° |
| 2026-05-07 15:44 | 52.20203 | 8.29209 | 24085 ft | 261 kts | 252° |
| 2026-05-07 15:44 | 52.19921 | 8.26283 | 24078 ft | 262 kts | 265° |
| 2026-05-07 15:44 | 52.19818 | 8.23321 | 24083 ft | 262 kts | 265° |
| 2026-05-07 15:45 | 52.19713 | 8.20354 | 24080 ft | 262 kts | 265° |
| 2026-05-07 15:45 | 52.19604 | 8.17382 | 24081 ft | 263 kts | 265° |
| 2026-05-07 15:45 | 52.19493 | 8.14405 | 24087 ft | 263 kts | 265° |
| 2026-05-07 15:45 | 52.19382 | 8.11431 | 24089 ft | 263 kts | 265° |
| 2026-05-07 15:46 | 52.19159 | 8.05496 | 24084 ft | 263 kts | 265° |
| 2026-05-07 15:46 | 52.19045 | 8.02502 | 24085 ft | 263 kts | 265° |
| 2026-05-07 15:46 | 52.18932 | 7.99566 | 24084 ft | 263 kts | 265° |
| 2026-05-07 15:47 | 52.18816 | 7.96555 | 24084 ft | 263 kts | 265° |
| 2026-05-07 15:47 | 52.18700 | 7.93581 | 24083 ft | 263 kts | 265° |
| 2026-05-07 15:47 | 52.18584 | 7.90607 | 24083 ft | 263 kts | 265° |
| 2026-05-07 15:47 | 52.18468 | 7.87673 | 24082 ft | 263 kts | 265° |
| 2026-05-07 15:48 | 52.18350 | 7.84691 | 24083 ft | 263 kts | 265° |
| 2026-05-07 15:48 | 52.18231 | 7.81712 | 24084 ft | 263 kts | 265° |
| 2026-05-07 15:48 | 52.18112 | 7.78739 | 24085 ft | 263 kts | 265° |
| 2026-05-07 15:48 | 52.17992 | 7.75764 | 24084 ft | 263 kts | 265° |
| 2026-05-07 15:49 | 52.17874 | 7.72789 | 24083 ft | 263 kts | 265° |
| 2026-05-07 15:49 | 52.17760 | 7.69818 | 24081 ft | 263 kts | 265° |
| 2026-05-07 15:49 | 52.17644 | 7.66843 | 24082 ft | 263 kts | 265° |
| 2026-05-07 15:49 | 52.17514 | 7.63876 | 24081 ft | 262 kts | 265° |
| 2026-05-07 15:50 | 52.17374 | 7.60910 | 24082 ft | 262 kts | 265° |
| 2026-05-07 15:50 | 52.17238 | 7.57941 | 24082 ft | 263 kts | 265° |
| 2026-05-07 15:50 | 52.17106 | 7.55010 | 24086 ft | 263 kts | 265° |
| 2026-05-07 15:50 | 52.16971 | 7.52043 | 24086 ft | 263 kts | 265° |
| 2026-05-07 15:51 | 52.16834 | 7.49074 | 24087 ft | 263 kts | 265° |
| 2026-05-07 15:51 | 52.16696 | 7.46104 | 24082 ft | 263 kts | 265° |
| 2026-05-07 15:51 | 52.16558 | 7.43137 | 24083 ft | 263 kts | 265° |
| 2026-05-07 15:51 | 52.16419 | 7.40168 | 24081 ft | 263 kts | 265° |
| 2026-05-07 15:52 | 52.16280 | 7.37203 | 24078 ft | 263 kts | 265° |
| 2026-05-07 15:52 | 52.16139 | 7.34227 | 24077 ft | 263 kts | 265° |
| 2026-05-07 15:52 | 52.15998 | 7.31260 | 24078 ft | 263 kts | 265° |
| 2026-05-07 15:52 | 52.15856 | 7.28286 | 24076 ft | 263 kts | 264° |
| 2026-05-07 15:53 | 52.15713 | 7.25319 | 24075 ft | 263 kts | 264° |
| 2026-05-07 15:53 | 52.15573 | 7.22418 | 24075 ft | 263 kts | 264° |
| 2026-05-07 15:53 | 52.15427 | 7.19415 | 24076 ft | 263 kts | 264° |
| 2026-05-07 15:53 | 52.15282 | 7.16445 | 24073 ft | 263 kts | 264° |
| 2026-05-07 15:54 | 52.15212 | 7.13480 | 24068 ft | 263 kts | 273° |
| 2026-05-07 15:54 | 52.15625 | 7.10578 | 24064 ft | 265 kts | 289° |
| 2026-05-07 15:54 | 52.16542 | 7.07970 | 24061 ft | 267 kts | 305° |
| 2026-05-07 15:54 | 52.17682 | 7.05585 | 24056 ft | 265 kts | 302° |
| 2026-05-07 15:55 | 52.18473 | 7.02900 | 24067 ft | 263 kts | 289° |
| 2026-05-07 15:55 | 52.19092 | 7.00097 | 24066 ft | 263 kts | 287° |
| 2026-05-07 15:55 | 52.19710 | 6.97287 | 24063 ft | 263 kts | 288° |
| 2026-05-07 15:55 | 52.20362 | 6.94486 | 24068 ft | 264 kts | 289° |
| 2026-05-07 15:56 | 52.21009 | 6.91724 | 24066 ft | 264 kts | 289° |
| 2026-05-07 15:56 | 52.21657 | 6.88919 | 24066 ft | 265 kts | 289° |
| 2026-05-07 15:56 | 52.22301 | 6.86107 | 24061 ft | 265 kts | 289° |
| 2026-05-07 15:56 | 52.22947 | 6.83292 | 24061 ft | 265 kts | 289° |
| 2026-05-07 15:57 | 52.23595 | 6.80473 | 23984 ft | 268 kts | 289° |
| 2026-05-07 15:57 | 52.24255 | 6.77600 | 23746 ft | 269 kts | 289° |
| 2026-05-07 15:57 | 52.24906 | 6.74765 | 23487 ft | 265 kts | 289° |
| 2026-05-07 15:57 | 52.25548 | 6.71960 | 23203 ft | 263 kts | 289° |
| 2026-05-07 15:58 | 52.26185 | 6.69164 | 22833 ft | 264 kts | 289° |
| 2026-05-07 15:58 | 52.26832 | 6.66323 | 22291 ft | 270 kts | 289° |
| 2026-05-07 15:58 | 52.27491 | 6.63435 | 21761 ft | 273 kts | 289° |
| 2026-05-07 15:58 | 52.28154 | 6.60519 | 21235 ft | 274 kts | 289° |
| 2026-05-07 15:59 | 52.28819 | 6.57591 | 20725 ft | 275 kts | 289° |
| 2026-05-07 15:59 | 52.29475 | 6.54699 | 20223 ft | 275 kts | 289° |
| 2026-05-07 15:59 | 52.30131 | 6.51805 | 19730 ft | 274 kts | 289° |
| 2026-05-07 15:59 | 52.30801 | 6.48842 | 19237 ft | 274 kts | 289° |
| 2026-05-07 16:00 | 52.31459 | 6.45923 | 18752 ft | 273 kts | 290° |
| 2026-05-07 16:00 | 52.32116 | 6.43012 | 18269 ft | 272 kts | 290° |
| 2026-05-07 16:00 | 52.32770 | 6.40110 | 17723 ft | 271 kts | 289° |
| 2026-05-07 16:00 | 52.33420 | 6.37217 | 17186 ft | 270 kts | 289° |
| 2026-05-07 16:01 | 52.33784 | 6.34260 | 16666 ft | 266 kts | 268° |
| 2026-05-07 16:01 | 52.33437 | 6.31312 | 16149 ft | 263 kts | 257° |
| 2026-05-07 16:01 | 52.33037 | 6.28389 | 15643 ft | 264 kts | 257° |
| 2026-05-07 16:01 | 52.32625 | 6.25469 | 15140 ft | 264 kts | 257° |
| 2026-05-07 16:02 | 52.32213 | 6.22553 | 14650 ft | 263 kts | 257° |
| 2026-05-07 16:02 | 52.31809 | 6.19683 | 14183 ft | 263 kts | 257° |
| 2026-05-07 16:02 | 52.31402 | 6.16774 | 13683 ft | 262 kts | 257° |
| 2026-05-07 16:02 | 52.30996 | 6.13879 | 13145 ft | 261 kts | 257° |
| 2026-05-07 16:03 | 52.30591 | 6.10991 | 12619 ft | 260 kts | 257° |
| 2026-05-07 16:03 | 52.30185 | 6.08107 | 12102 ft | 259 kts | 257° |
| 2026-05-07 16:03 | 52.29781 | 6.05239 | 11589 ft | 258 kts | 257° |
| 2026-05-07 16:03 | 52.29379 | 6.02392 | 11093 ft | 257 kts | 257° |
| 2026-05-07 16:04 | 52.28974 | 5.99546 | 10595 ft | 256 kts | 256° |
| 2026-05-07 16:04 | 52.28533 | 5.96733 | 10108 ft | 255 kts | 255° |
| 2026-05-07 16:04 | 52.28074 | 5.93947 | 9589 ft | 253 kts | 255° |
| 2026-05-07 16:04 | 52.27619 | 5.91205 | 9063 ft | 250 kts | 255° |
| 2026-05-07 16:05 | 52.27166 | 5.88476 | 8537 ft | 247 kts | 255° |
| 2026-05-07 16:05 | 52.26718 | 5.85772 | 8015 ft | 245 kts | 255° |
| 2026-05-07 16:05 | 52.26283 | 5.83137 | 7690 ft | 244 kts | 255° |
| 2026-05-07 16:05 | 52.25842 | 5.80467 | 7434 ft | 244 kts | 255° |
| 2026-05-07 16:06 | 52.25401 | 5.77787 | 7181 ft | 244 kts | 255° |
| 2026-05-07 16:06 | 52.24959 | 5.75091 | 6939 ft | 248 kts | 255° |
| 2026-05-07 16:06 | 52.24511 | 5.72350 | 6691 ft | 251 kts | 255° |
| 2026-05-07 16:06 | 52.24060 | 5.69580 | 6445 ft | 253 kts | 254° |
| 2026-05-07 16:07 | 52.23609 | 5.66804 | 6180 ft | 253 kts | 255° |
| 2026-05-07 16:07 | 52.23164 | 5.64070 | 5926 ft | 251 kts | 255° |
| 2026-05-07 16:07 | 52.22723 | 5.61376 | 5671 ft | 248 kts | 255° |
| 2026-05-07 16:07 | 52.22270 | 5.58627 | 5416 ft | 247 kts | 255° |
| 2026-05-07 16:08 | 52.21823 | 5.55931 | 5164 ft | 245 kts | 255° |
| 2026-05-07 16:08 | 52.21374 | 5.53252 | 4913 ft | 245 kts | 255° |
| 2026-05-07 16:08 | 52.20920 | 5.50583 | 4655 ft | 245 kts | 255° |
| 2026-05-07 16:08 | 52.20459 | 5.47914 | 4386 ft | 244 kts | 255° |
| 2026-05-07 16:09 | 52.19994 | 5.45242 | 4130 ft | 245 kts | 255° |
| 2026-05-07 16:09 | 52.19525 | 5.42575 | 3887 ft | 245 kts | 254° |
| 2026-05-07 16:09 | 52.19049 | 5.39909 | 3626 ft | 245 kts | 254° |
| 2026-05-07 16:09 | 52.18570 | 5.37246 | 3369 ft | 246 kts | 255° |
| 2026-05-07 16:10 | 52.18100 | 5.34661 | 3118 ft | 244 kts | 255° |
| 2026-05-07 16:10 | 52.17632 | 5.32108 | 2869 ft | 240 kts | 255° |
| 2026-05-07 16:10 | 52.17148 | 5.29498 | 2615 ft | 238 kts | 255° |
| 2026-05-07 16:10 | 52.16666 | 5.26923 | 2352 ft | 237 kts | 255° |
| 2026-05-07 16:11 | 52.16178 | 5.24365 | 2094 ft | 236 kts | 255° |
| 2026-05-07 16:11 | 52.15690 | 5.21812 | 1851 ft | 236 kts | 254° |
| 2026-05-07 16:11 | 52.15214 | 5.19335 | 1599 ft | 227 kts | 254° |
| 2026-05-07 16:11 | 52.14793 | 5.16932 | 1485 ft | 211 kts | 261° |
| 2026-05-07 16:12 | 52.14698 | 5.14654 | 1475 ft | 194 kts | 274° |
| 2026-05-07 16:12 | 52.14842 | 5.12538 | 1472 ft | 183 kts | 285° |
| 2026-05-07 16:12 | 52.15263 | 5.10666 | 1471 ft | 173 kts | 301° |
| 2026-05-07 16:12 | 52.15916 | 5.09111 | 1480 ft | 160 kts | 310° |
| 2026-05-07 16:13 | 52.16582 | 5.07696 | 1474 ft | 155 kts | 308° |
| 2026-05-07 16:13 | 52.17219 | 5.06326 | 1481 ft | 149 kts | 309° |
| 2026-05-07 16:13 | 52.17844 | 5.04964 | 1482 ft | 150 kts | 308° |
| 2026-05-07 16:13 | 52.18461 | 5.03616 | 1475 ft | 147 kts | 310° |
| 2026-05-07 16:14 | 52.19067 | 5.02291 | 1484 ft | 149 kts | 310° |
| 2026-05-07 16:14 | 52.19682 | 5.00944 | 1491 ft | 152 kts | 309° |
| 2026-05-07 16:14 | 52.20334 | 4.99516 | 1502 ft | 157 kts | 310° |
| 2026-05-07 16:14 | 52.20991 | 4.98075 | 1490 ft | 163 kts | 309° |
| 2026-05-07 16:15 | 52.21670 | 4.96583 | 1490 ft | 164 kts | 308° |
| 2026-05-07 16:15 | 52.22351 | 4.95086 | 1492 ft | 165 kts | 310° |
| 2026-05-07 16:15 | 52.23040 | 4.93569 | 1486 ft | 166 kts | 309° |
| 2026-05-07 16:15 | 52.23732 | 4.92046 | 1494 ft | 168 kts | 309° |
| 2026-05-07 16:16 | 52.24428 | 4.90513 | 1493 ft | 165 kts | 309° |
| 2026-05-07 16:16 | 52.25073 | 4.89089 | 1494 ft | 148 kts | 310° |
| 2026-05-07 16:16 | 52.25648 | 4.87816 | 1494 ft | 134 kts | 310° |
| 2026-05-07 16:16 | 52.26182 | 4.86636 | 1482 ft | 124 kts | 311° |
| 2026-05-07 16:17 | 52.26688 | 4.85523 | 1480 ft | 122 kts | 311° |
| 2026-05-07 16:17 | 52.27182 | 4.84422 | 1483 ft | 119 kts | 311° |
| 2026-05-07 16:17 | 52.27543 | 4.83218 | 1484 ft | 125 kts | 275° |
| 2026-05-07 16:17 | 52.27147 | 4.81945 | 1502 ft | 133 kts | 222° |
| 2026-05-07 16:18 | 52.26452 | 4.80947 | 1495 ft | 134 kts | 223° |
| 2026-05-07 16:18 | 52.25744 | 4.79913 | 1495 ft | 138 kts | 221° |
| 2026-05-07 16:18 | 52.25037 | 4.78883 | 1487 ft | 134 kts | 222° |
| 2026-05-07 16:18 | 52.24340 | 4.77899 | 1488 ft | 132 kts | 223° |
| 2026-05-07 16:19 | 52.23843 | 4.76696 | 1395 ft | 130 kts | 265° |
| 2026-05-07 16:19 | 52.24089 | 4.75385 | 1225 ft | 119 kts | 311° |
| 2026-05-07 16:19 | 52.24573 | 4.74377 | 1062 ft | 108 kts | 317° |
| 2026-05-07 16:19 | 52.25056 | 4.73484 | 887 ft | 101 kts | 317° |
| 2026-05-07 16:20 | 52.25587 | 4.72976 | 900 ft | 86 kts | 2° |
| 2026-05-07 16:20 | 52.26121 | 4.73069 | 882 ft | 70 kts | 25° |
| 2026-05-07 16:20 | 52.26546 | 4.73571 | 892 ft | 84 kts | 33° |
| 2026-05-07 16:20 | 52.27032 | 4.74165 | 796 ft | 87 kts | 38° |
| 2026-05-07 16:21 | 52.27492 | 4.74771 | 681 ft | 83 kts | 38° |
| 2026-05-07 16:21 | 52.27920 | 4.75353 | 561 ft | 79 kts | 41° |
| 2026-05-07 16:21 | 52.28337 | 4.75932 | 448 ft | 79 kts | 42° |
| 2026-05-07 16:21 | 52.28756 | 4.76521 | 354 ft | 80 kts | 42° |
| 2026-05-07 16:22 | 52.29180 | 4.77117 | 240 ft | 79 kts | 41° |
| 2026-05-07 16:22 | 52.29577 | 4.77685 | 168 ft | 75 kts | 42° |
| 2026-05-07 16:22 | 52.29967 | 4.78246 | 69 ft | 74 kts | 41° |
| 2026-05-07 16:22 | 52.30338 | 4.78777 | -4 ft | 64 kts | 42° |
| 2026-05-07 16:23 | 52.30626 | 4.79187 | -8 ft | 46 kts | 41° |
| 2026-05-07 16:23 | 52.30781 | 4.79411 | -7 ft | 24 kts | 41° |
| 2026-05-07 16:23 | 52.30877 | 4.79548 | -8 ft | 13 kts | 44° |
| 2026-05-07 16:23 | 52.30876 | 4.79663 | -7 ft | 10 kts | 132° |
| 2026-05-07 16:24 | 52.30832 | 4.79743 | -5 ft | 9 kts | 127° |
| 2026-05-07 16:24 | 52.30838 | 4.79834 | -5 ft | 8 kts | 51° |
| 2026-05-07 16:24 | 52.30879 | 4.79896 | -5 ft | 8 kts | 41° |
| 2026-05-07 16:24 | 52.30918 | 4.79952 | -5 ft | 8 kts | 41° |
| 2026-05-07 16:25 | 52.30965 | 4.80019 | -5 ft | 10 kts | 41° |
| 2026-05-07 16:25 | 52.31024 | 4.80104 | -5 ft | 11 kts | 41° |
| 2026-05-07 16:25 | 52.31062 | 4.80202 | -5 ft | 10 kts | 95° |
| 2026-05-07 16:25 | 52.31039 | 4.80290 | -5 ft | 6 kts | 75° |
| 2026-05-07 16:26 | 52.31062 | 4.80331 | -5 ft | 3 kts | 41° |
| 2026-05-07 16:26 | 52.31072 | 4.80351 | -5 ft | 2 kts | 80° |
| 2026-05-07 16:26 | 52.31052 | 4.80384 | -5 ft | 3 kts | 55° |
| 2026-05-07 16:26 | 52.31060 | 4.80378 | -5 ft | 0 kts | 309° |
| 2026-05-07 16:27 | 52.31061 | 4.80377 | -5 ft | 0 kts | 314° |
| 2026-05-07 16:27 | 52.31061 | 4.80378 | -5 ft | 0 kts | 314° |
| 2026-05-07 16:28 | 52.31061 | 4.80377 | -5 ft | 0 kts | 314° |
| 2026-05-07 16:28 | 52.31061 | 4.80378 | -5 ft | 0 kts | 314° |
| 2026-05-07 16:28 | 52.31060 | 4.80378 | -5 ft | 0 kts | 314° |